Forside
METAR-TAF:

METAR-TAF

Lufthavne :

Nouakchott, Mauretanien

Breddekreds: 18-18-36N, længdekreds: 015-58-11W, højde: 3 m

Aktuelle vejr

Denne rapport blev lavet for 44 minutter siden, kl. 11:30 UTC
Vind 15 kt fra østnordøst
Temperatur 20°C
Fugtighed 43%
Tryk 1019 hPa
Sigt: 4500 m
lavt drivende støv

METAR: GQNO 221130Z 06015KT 4500 DRDU NSC 20/07 Q1019 NOSIG

Tid: 12:14 (12:14 UTC)

Vejrudsigter

Denne rapport blev lavet for 1 time og 14 minutter siden, kl. 11:00 UTC
Foreløbig gælder fra 22 på 12 UTC til 23 på 18 UTC
Vind 16 kt fra øst
Sigt: 4000 m
lavt drivende støv
ændring
fra 22 på 15 UTC til 22 på 18 UTC
Vind 12 kt fra nordnordøst
Sigt: 8000 m
ændring
fra 23 på 08 UTC til 23 på 11 UTC
Vind 12 kt fra øst
Sandsynlighed 30% :
Midlertidig
fra 23 på 10 UTC til 23 på 14 UTC
Sigt: 4000 m
blæsende støv
ændring
fra 23 på 16 UTC til 23 på 18 UTC
Vind 10 kt fra nord

TAF: GQNO 221100Z 2212/2318 08016KT 4000 DRDU NSC BECMG 2215/2218 02012KT 8000 NSW BECMG 2308/2311 08012KT PROB30 TEMPO 2310/2314 4000 BLDU BECMG 2316/2318 36010KT

Vejrobservationer og prognoser fra mere end 4000 lufthavne (METAR og TAF).

De gule og røde prikker repræsenterer de meteorologiske stationer.

Flyt musen over at se navnet på stationen.

Så klik over at se vejr observationer og prognoser.

At skifte det kort: Klik på de grønne knapper med et sort kors for at zoome ind; på den grønne knap med en bindestreg for at zoome ud; eller på de grønne pile for tilstødende kort.


METAR-TAF: